PACZ

Details ICAO PACZ (CZF)
Name CAPE ROMANZOF LRRS
Region USA (Alaska)
Timezone America/Nome (UTC-8.0)
Plans Departing 1
Arriving 3
Stats Elevation 457 ft / 139 m (AMSL)
Location 61.780138° -166.038756°
Runways 1
Magnetic Variation 9.500° E
Sunrise 2018-05-25 13:48:35 UTC / 2018-05-25 05:48:35 Local
Sunset 2018-05-26 08:16:34 UTC / 2018-05-26 00:16:34 Local
Advertisement - Login to hide

Runways

ID Width Length Bearing (true) Bearing (mag) Surface Threshold Offset Overrun Length
02 135 ft / 41 m 3,922 ft / 1,196 m 36.78° 27.28° Gravel 0 ft / 0 m 0 ft / 0 m
20 135 ft / 41 m 3,922 ft / 1,196 m 216.79° 207.29° Gravel 0 ft / 0 m 0 ft / 0 m

Map

Weather


0- 5 10 15 20 25 30 35+ Temperature / ° C

Clouds and Precipitation
Forecast for 2018-05-25 12:00 UTC. Updated 6 hours ago

Ground ~20,000 ft ~40,000 ft Winds

METAR

PACZ 251655Z AUTO 03028KT 10SM OVC004 02/01 A2975

TAF

Not found

Frequencies

Tower 126.20 MHz INFO
Warning: Do not use this data for real-world aviation or navigation. No guarantee of current accuracy is given.